Washington, District of Columbia
Traffic Map
Current Weather Conditions
Washington, District of Columbia
Broken Clouds
Broken Clouds
46°
Feels Like: 44°
Wind Chill: 44° Ceiling: 25000
Heat Index: 46° Visibility: 10mi
Dew Point: 33° Wind: 5mph
Humidity: 61% Direction: 70° (ENE)
Pressure: 30.45in Gusts: 0mph
Raw Report DataKDCA 182352Z 07004KT 10SM BKN250 08/01 A3045 RMK AO2 SLP311 T00780006 10106 20078 53010
Traffic Incident Summary
Active as of:
Severity:
Category:
InformationThere was an issue retrieving the traffic information for this location. Please try a different location or try again shortly.
Advertisements